createdAt,value
2019-01-15T04:27:22.261Z,6.57
2019-01-15T04:29:52.578Z,6.67
2019-01-15T04:32:22.850Z,5.13
2019-01-15T04:34:53.133Z,7.37
2019-01-15T04:37:23.521Z,6.43
2019-01-15T04:39:53.816Z,6.83
2019-01-15T04:42:24.098Z,10.03
2019-01-15T04:44:54.394Z,6.63
2019-01-15T04:47:24.651Z,9.83
2019-01-15T04:49:54.938Z,7.67
2019-01-15T04:52:25.405Z,6.40
2019-01-15T04:54:55.714Z,6.43
2019-01-15T04:57:25.994Z,8.97
2019-01-15T04:59:56.409Z,9.47
2019-01-15T05:02:26.680Z,10.57
2019-01-15T05:04:57.009Z,7.67
2019-01-15T05:07:27.317Z,4.73
2019-01-15T05:09:57.584Z,6.73
2019-01-15T05:12:27.870Z,8.47
2019-01-15T05:14:58.182Z,5.00
2019-01-15T05:17:28.483Z,5.63
2019-01-15T05:19:58.761Z,7.23
2019-01-15T05:22:29.050Z,10.73
2019-01-15T05:24:59.374Z,5.23
2019-01-15T05:27:29.755Z,7.83
2019-01-15T05:30:00.053Z,6.73
2019-01-15T05:32:30.549Z,10.33
2019-01-15T05:35:00.824Z,13.47
2019-01-15T05:37:31.124Z,9.47
2019-01-15T05:40:01.462Z,6.97
2019-01-15T05:42:31.718Z,6.53
2019-01-15T05:45:04.920Z,5.80
2019-01-15T05:47:35.382Z,5.63
2019-01-15T05:50:06.518Z,7.63
2019-01-15T05:52:36.904Z,8.77
2019-01-15T05:55:07.386Z,5.77
2019-01-15T05:57:40.594Z,5.57
2019-01-15T06:00:11.640Z,4.93
2019-01-15T06:02:41.909Z,5.80
2019-01-15T06:05:12.478Z,5.13
2019-01-15T06:07:42.841Z,6.20
2019-01-15T06:10:13.337Z,7.00
2019-01-15T06:12:43.597Z,6.80
2019-01-15T06:15:13.995Z,5.20
2019-01-15T06:17:44.295Z,6.53
2019-01-15T06:20:15.469Z,6.67
2019-01-15T06:22:45.878Z,7.73
2019-01-15T06:25:16.588Z,6.00
2019-01-15T06:27:46.981Z,8.00
2019-01-15T06:30:17.431Z,4.73
2019-01-15T06:32:47.709Z,6.43
2019-01-15T06:35:18.006Z,7.57
2019-01-15T06:37:48.261Z,8.23
2019-01-15T06:40:18.570Z,7.43
2019-01-15T06:42:49.083Z,9.87
2019-01-15T06:45:22.049Z,5.23
2019-01-15T06:47:52.444Z,5.97
2019-01-15T06:50:22.856Z,8.13
2019-01-15T06:52:53.231Z,7.40
2019-01-15T06:55:23.564Z,6.20
2019-01-15T06:57:53.965Z,4.70
2019-01-15T07:00:26.365Z,11.27
2019-01-15T07:02:56.970Z,5.67
2019-01-15T07:05:27.241Z,7.80
2019-01-15T07:07:57.671Z,9.83
2019-01-15T07:10:30.688Z,8.73
2019-01-15T07:13:00.981Z,8.77
2019-01-15T07:15:31.241Z,7.80
2019-01-15T07:18:05.604Z,7.43
2019-01-15T07:20:36.137Z,6.50
2019-01-15T07:23:06.710Z,7.30
2019-01-15T07:25:37.314Z,7.47
2019-01-15T07:28:08.742Z,7.90
2019-01-15T07:30:51.100Z,9.03
2019-01-15T07:33:24.444Z,11.17
2019-01-15T07:35:54.724Z,7.57
2019-01-15T07:38:25.090Z,6.43
2019-01-15T07:40:55.497Z,9.77
2019-01-15T07:43:26.290Z,6.47
2019-01-15T07:45:56.613Z,9.20
2019-01-15T07:48:26.975Z,8.50
2019-01-15T07:50:57.333Z,6.90
2019-01-15T07:53:27.673Z,8.57
2019-01-15T07:55:58.528Z,11.23
2019-01-15T07:58:29.117Z,27.50
2019-01-15T08:00:59.790Z,10.03
2019-01-15T08:03:30.377Z,12.43
2019-01-15T08:06:00.862Z,9.57
2019-01-15T08:08:32.453Z,7.17
2019-01-15T08:11:02.824Z,7.00
2019-01-15T08:13:33.283Z,7.20
2019-01-15T08:16:03.861Z,7.50
2019-01-15T08:18:34.261Z,10.20
2019-01-15T08:21:55.041Z,9.03
2019-01-15T08:24:30.161Z,10.57
2019-01-15T08:27:10.352Z,11.50
2019-01-15T08:30:01.316Z,8.73
2019-01-15T08:32:43.211Z,9.40
2019-01-15T08:35:19.873Z,9.87
2019-01-15T08:37:50.201Z,9.17
2019-01-15T08:40:21.673Z,10.13
2019-01-15T08:42:53.051Z,7.20
2019-01-15T08:45:23.368Z,10.33
2019-01-15T08:48:06.367Z,5.67
2019-01-15T08:50:36.688Z,7.67
2019-01-15T08:53:06.977Z,7.27
2019-01-15T08:55:37.285Z,10.73
2019-01-15T08:58:07.720Z,7.97
2019-01-15T09:00:38.008Z,9.50
2019-01-15T09:03:08.305Z,8.97
2019-01-15T09:05:38.588Z,11.50
2019-01-15T09:08:09.002Z,10.07
2019-01-15T09:10:39.332Z,9.83
2019-01-15T09:13:09.630Z,7.70
2019-01-15T09:15:39.952Z,9.97
2019-01-15T09:18:10.199Z,9.97
2019-01-15T09:20:40.500Z,9.83
2019-01-15T09:23:10.758Z,9.03
2019-01-15T09:25:41.117Z,9.70
2019-01-15T09:28:11.381Z,6.30
2019-01-15T09:30:41.692Z,6.13
2019-01-15T09:33:12.024Z,7.80
2019-01-15T09:35:42.403Z,7.60
2019-01-15T09:38:12.672Z,6.37
2019-01-15T09:40:44.427Z,7.27
2019-01-15T09:43:15.315Z,8.43
2019-01-15T09:45:48.384Z,8.10
2019-01-15T09:48:25.576Z,10.03
2019-01-15T09:50:56.839Z,10.60
2019-01-15T09:53:28.448Z,10.37
2019-01-15T09:56:00.520Z,8.40
2019-01-15T09:58:31.529Z,8.67
2019-01-15T10:01:03.431Z,8.53
2019-01-15T10:03:34.928Z,10.93
2019-01-15T10:06:05.850Z,8.03
2019-01-15T10:08:37.502Z,11.30
2019-01-15T10:11:09.132Z,7.07
2019-01-15T10:13:40.450Z,11.53
2019-01-15T10:16:11.729Z,16.50
2019-01-15T10:18:44.459Z,10.87
2019-01-15T10:21:15.671Z,12.30
2019-01-15T10:23:46.725Z,10.93
2019-01-15T10:26:18.006Z,9.63
2019-01-15T10:28:50.183Z,10.37
2019-01-15T10:31:59.258Z,15.83
2019-01-15T10:34:35.174Z,10.00
2019-01-15T10:37:04.195Z,12.20
2019-01-15T10:39:35.849Z,8.50
2019-01-15T10:42:07.179Z,9.97
2019-01-15T10:44:39.456Z,10.97
2019-01-15T10:47:11.498Z,9.87
2019-01-15T10:49:56.203Z,8.47
2019-01-15T10:52:26.864Z,9.47
2019-01-15T10:54:57.365Z,9.30
2019-01-15T10:57:39.183Z,10.90
2019-01-15T11:00:11.849Z,8.37
2019-01-15T11:02:49.395Z,9.47
2019-01-15T11:05:22.815Z,15.77
2019-01-15T11:07:58.232Z,8.73
2019-01-15T11:10:42.094Z,9.27
2019-01-15T11:13:26.257Z,9.40
2019-01-15T11:15:53.557Z,9.80
2019-01-15T11:18:33.715Z,11.27
2019-01-15T11:21:14.042Z,12.30
2019-01-15T11:23:47.183Z,11.03
2019-01-15T11:26:27.348Z,12.07
2019-01-15T11:28:57.979Z,9.20
2019-01-15T11:31:32.035Z,13.17
2019-01-15T11:34:03.640Z,9.70
2019-01-15T11:36:33.958Z,10.43
2019-01-15T11:39:07.203Z,9.50
2019-01-15T11:41:37.509Z,10.33
2019-01-15T11:44:07.832Z,8.77
2019-01-15T11:46:38.324Z,12.20
2019-01-15T11:49:09.708Z,7.80
2019-01-15T11:51:40.170Z,9.67
2019-01-15T11:54:11.900Z,12.27
2019-01-15T11:56:42.501Z,10.23
2019-01-15T11:59:13.380Z,12.23
2019-01-15T12:01:52.660Z,12.33
2019-01-15T12:04:45.309Z,11.37
2019-01-15T12:07:31.761Z,12.43
2019-01-15T12:10:30.451Z,14.57
2019-01-15T12:13:18.491Z,12.03
2019-01-15T12:16:06.016Z,15.40
2019-01-15T12:19:04.544Z,16.40
2019-01-15T12:21:47.308Z,16.83
2019-01-15T12:24:43.899Z,10.77
2019-01-15T12:27:33.234Z,13.03
2019-01-15T12:30:14.305Z,9.33
2019-01-15T12:33:02.022Z,9.30
2019-01-15T12:36:03.701Z,12.63
2019-01-15T12:39:01.817Z,12.40
2019-01-15T12:41:56.896Z,12.03
2019-01-15T12:44:44.799Z,10.00
2019-01-15T12:47:34.909Z,10.37
2019-01-15T12:50:26.131Z,11.17
2019-01-15T12:53:23.846Z,11.07
2019-01-15T12:56:13.046Z,10.70
2019-01-15T12:59:08.437Z,9.97
2019-01-15T13:01:56.870Z,10.67
2019-01-15T13:05:02.001Z,10.63
2019-01-15T13:07:49.544Z,13.57
2019-01-15T13:10:37.366Z,12.43
2019-01-15T13:13:26.479Z,12.73
2019-01-15T13:16:09.789Z,13.17
2019-01-15T13:19:08.314Z,13.00
2019-01-15T13:21:57.832Z,8.30
2019-01-15T13:24:46.193Z,11.77
2019-01-15T13:27:29.811Z,12.10
2019-01-15T13:30:25.150Z,15.43
2019-01-15T13:33:23.353Z,13.60
2019-01-15T13:36:06.052Z,6.97
2019-01-15T13:38:55.196Z,9.70
2019-01-15T13:41:42.981Z,8.37
2019-01-15T13:44:50.200Z,8.00
2019-01-15T13:47:37.994Z,14.17
2019-01-15T13:50:20.553Z,8.33
2019-01-15T13:53:13.542Z,8.67
2019-01-15T13:55:54.658Z,9.47
2019-01-15T13:58:42.660Z,5.70
2019-01-15T14:01:43.909Z,12.57
2019-01-15T14:04:36.706Z,8.40
2019-01-15T14:07:20.885Z,11.43
2019-01-15T14:10:08.983Z,8.63
2019-01-15T14:12:58.259Z,8.40
2019-01-15T14:15:59.905Z,8.57
2019-01-15T14:18:53.612Z,7.13
2019-01-15T14:21:48.616Z,6.00
2019-01-15T14:24:40.890Z,11.13
2019-01-15T14:27:38.972Z,10.00
2019-01-15T14:30:46.136Z,13.47
2019-01-15T14:33:35.380Z,8.43
2019-01-15T14:36:23.261Z,11.63
2019-01-15T14:39:11.281Z,10.93
2019-01-15T14:42:06.610Z,11.67
2019-01-15T14:45:04.662Z,7.03
2019-01-15T14:48:12.073Z,12.20
2019-01-15T14:51:13.256Z,10.77
2019-01-15T14:54:01.112Z,9.97
2019-01-15T14:56:48.972Z,7.97
2019-01-15T14:59:37.681Z,9.97
2019-01-15T15:02:36.282Z,11.27
2019-01-15T15:05:32.633Z,12.20
2019-01-15T15:08:27.688Z,12.67
2019-01-15T15:11:23.684Z,10.57
2019-01-15T15:14:13.722Z,7.17
2019-01-15T15:16:57.536Z,10.93
2019-01-15T15:19:46.562Z,8.53
2019-01-15T15:22:34.478Z,15.83
2019-01-15T15:25:36.764Z,17.50
2019-01-15T15:28:24.244Z,10.07
2019-01-15T15:31:24.977Z,9.37
2019-01-15T15:34:26.210Z,10.93
2019-01-15T15:37:20.789Z,11.47
2019-01-15T15:40:18.882Z,7.80
2019-01-15T15:43:06.632Z,11.17
2019-01-15T15:46:13.898Z,11.93
2019-01-15T15:49:02.007Z,11.57
2019-01-15T15:51:44.869Z,9.03
2019-01-15T15:54:46.353Z,7.73
2019-01-15T15:57:41.356Z,10.43
2019-01-15T16:00:29.457Z,10.77
2019-01-15T16:03:18.941Z,9.43
2019-01-15T16:06:14.232Z,10.60
2019-01-15T16:09:08.160Z,9.87
2019-01-15T16:11:48.093Z,9.90
2019-01-15T16:14:35.044Z,9.50
2019-01-15T16:17:23.211Z,7.83
2019-01-15T16:20:12.486Z,12.40
2019-01-15T16:23:00.164Z,10.17
2019-01-15T16:25:58.463Z,11.40
2019-01-15T16:28:46.382Z,9.13
2019-01-15T16:31:41.880Z,13.03
2019-01-15T16:34:37.207Z,9.30
2019-01-15T16:37:16.293Z,9.53
2019-01-15T16:40:10.407Z,10.53
2019-01-15T16:42:51.083Z,9.53
2019-01-15T16:45:39.828Z,6.43
2019-01-15T16:48:38.277Z,13.07
2019-01-15T16:51:29.060Z,9.90
2019-01-15T16:54:25.360Z,7.80
2019-01-15T16:57:13.641Z,10.40
2019-01-15T17:00:12.991Z,8.67
2019-01-15T17:03:05.167Z,8.33
2019-01-15T17:06:09.623Z,11.93
2019-01-15T17:09:00.541Z,14.67
2019-01-15T17:11:43.039Z,20.37
2019-01-15T17:14:31.340Z,15.63
2019-01-15T17:17:19.143Z,24.67
2019-01-15T17:20:01.651Z,12.67
2019-01-15T17:23:03.971Z,9.23
2019-01-15T17:26:05.169Z,7.90
2019-01-15T17:28:47.063Z,9.90
2019-01-15T17:31:36.888Z,8.57
2019-01-15T17:34:27.283Z,7.97
2019-01-15T17:37:18.839Z,11.73
2019-01-15T17:40:19.861Z,8.43
2019-01-15T17:43:07.773Z,8.67
2019-01-15T17:45:56.994Z,9.73
2019-01-15T17:48:49.025Z,7.67
2019-01-15T17:51:44.013Z,11.03
2019-01-15T17:54:33.267Z,9.17
2019-01-15T17:57:31.866Z,9.20
2019-01-15T18:00:21.233Z,9.27
2019-01-15T18:03:10.037Z,10.17
2019-01-15T18:06:02.044Z,9.73
2019-01-15T18:08:57.069Z,10.87
2019-01-15T18:11:50.259Z,9.90
2019-01-15T18:14:38.336Z,13.20
2019-01-15T18:17:22.495Z,5.77
2019-01-15T18:20:20.754Z,5.30
2019-01-15T18:23:10.017Z,6.87
2019-01-15T18:25:57.193Z,8.07
2019-01-15T18:28:46.421Z,6.23
2019-01-15T18:31:39.610Z,9.90
2019-01-15T18:34:35.756Z,11.87
2019-01-15T18:37:17.770Z,9.00
2019-01-15T18:40:08.029Z,8.53
2019-01-15T18:42:55.639Z,8.30
2019-01-15T18:45:44.109Z,10.60
2019-01-15T18:48:28.302Z,8.17
2019-01-15T18:51:33.932Z,12.37
2019-01-15T18:54:22.716Z,9.77
2019-01-15T18:57:11.975Z,8.30
2019-01-15T19:00:09.974Z,10.87
2019-01-15T19:02:58.042Z,8.00
2019-01-15T19:05:49.120Z,8.27
2019-01-15T19:08:40.807Z,8.80
2019-01-15T19:11:30.218Z,6.43
2019-01-15T19:14:25.886Z,8.33
2019-01-15T19:17:07.483Z,8.33
2019-01-15T19:19:56.093Z,6.67
2019-01-15T19:22:48.290Z,8.87
2019-01-15T19:25:51.644Z,7.93
2019-01-15T19:28:41.122Z,11.53
2019-01-15T19:31:36.131Z,14.50
2019-01-15T19:34:25.518Z,26.27
2019-01-15T19:37:17.939Z,28.77
2019-01-15T19:39:58.108Z,58.53
2019-01-15T19:42:56.506Z,42.50
2019-01-15T19:45:45.913Z,60.33
2019-01-15T19:48:39.386Z,32.67
2019-01-15T19:51:31.882Z,17.33
2019-01-15T19:54:21.507Z,5.93
2019-01-15T19:56:59.974Z,7.87
2019-01-15T19:59:52.503Z,5.23
2019-01-15T20:02:39.942Z,6.93
2019-01-15T20:05:27.864Z,6.33
2019-01-15T20:08:24.288Z,5.33
2019-01-15T20:11:13.022Z,7.17
2019-01-15T20:14:05.881Z,4.93
2019-01-15T20:17:02.538Z,5.77
2019-01-15T20:20:04.850Z,4.43
2019-01-15T20:23:10.052Z,4.47
2019-01-15T20:26:00.825Z,4.57
2019-01-15T20:29:08.161Z,3.53
2019-01-15T20:31:52.291Z,4.13
2019-01-15T20:34:41.977Z,3.17
2019-01-15T20:37:29.882Z,4.73
2019-01-15T20:40:23.971Z,3.50
2019-01-15T20:43:25.652Z,4.80
2019-01-15T20:46:23.394Z,3.70
2019-01-15T20:49:11.515Z,4.70
2019-01-15T20:52:01.102Z,3.23
2019-01-15T20:54:45.797Z,4.23
2019-01-15T20:57:36.061Z,8.67
2019-01-15T21:00:29.758Z,8.87
2019-01-15T21:03:17.852Z,6.23
2019-01-15T21:06:06.019Z,7.73
2019-01-15T21:09:10.731Z,5.67
2019-01-15T21:12:05.265Z,3.57
2019-01-15T21:14:53.188Z,6.30
2019-01-15T21:17:56.057Z,16.83
2019-01-15T21:20:51.477Z,12.87
2019-01-15T21:23:39.736Z,6.37
2019-01-15T21:26:41.588Z,9.77
2019-01-15T21:29:28.278Z,5.87
2019-01-15T21:32:16.592Z,4.73
2019-01-15T21:35:08.916Z,5.47
2019-01-15T21:38:01.346Z,3.97
2019-01-15T21:41:05.754Z,4.43
2019-01-15T21:43:53.658Z,5.03
2019-01-15T21:46:48.166Z,3.70
2019-01-15T21:49:46.374Z,5.47
2019-01-15T21:52:36.874Z,4.83
2019-01-15T21:55:15.022Z,4.50
